Sarah C. — WDD9226 — position and weather

sailwx.info

Track history (hours):
 
Tides and Currents Weather Stations Pressure Air Temp Water Temp Dewpoint Dewpoint Depression Visibility Wind Speed Wind Dir Waves Ship Positions

Sarah C.

Owner: Curtin Maritime Corporation, Long Beach, CA. More information available from US FCC via Universal Licensing System and Coast Guard Vessel Documentation Center.

Last reported at 2017-Nov-20 00:30 UTC. Time now 2017-Nov-21 13:27 UTC.
Position N 37°55' W 122°25'.

Length 20 m; draft 3 m.

Type: Towing. MMSI: 367308610.

Date/timePositionNaut miles runAvg speedWind from/ knotsBaromVisibWave heightAir tempDewpointWater temp
2017-Nov-20 00:30N 37°55' W 122°25'1 2.6
2017-Nov-20 00:00N 37°54' W 122°23'0 0.1
2017-Nov-19 23:30N 37°54' W 122°23'0 0.0
2017-Nov-19 23:00N 37°54' W 122°23'0 1.0
2017-Nov-19 22:30N 37°54' W 122°24'3 6.9
2017-Nov-19 22:00N 37°57' W 122°26'3 6.7
2017-Nov-19 21:30N 38°00' W 122°24'3 5.4
2017-Nov-19 21:00N 38°02' W 122°21'3 5.5
2017-Nov-19 20:30N 38°03' W 122°18'2 4.3
2017-Nov-19 20:00N 38°04' W 122°15'3 5.2
2017-Nov-19 19:30N 38°03' W 122°18'3 5.6
2017-Nov-19 19:00N 38°02' W 122°22'3 5.8
2017-Nov-19 18:30N 37°60' W 122°24'3 5.6
2017-Nov-19 18:00N 37°57' W 122°26'3 5.9
2017-Nov-19 17:30N 37°55' W 122°24'1 1.1
2017-Nov-19 17:00N 37°54' W 122°24'0 0.1
2017-Nov-19 16:30N 37°54' W 122°24'0 0.1
2017-Nov-19 16:00N 37°54' W 122°24'3 5.8
2017-Nov-19 15:29N 37°57' W 122°26'3 5.3
2017-Nov-19 15:00N 37°59' W 122°25'3 5.6
2017-Nov-19 14:30N 38°01' W 122°23'3 6.5
2017-Nov-19 14:00N 38°03' W 122°19'0 0.2
2017-Nov-19 13:30N 38°03' W 122°19'2 4.4
2017-Nov-19 13:00N 38°02' W 122°22'2 4.4
2017-Nov-19 12:30N 38°00' W 122°24'2 4.4
2017-Nov-19 11:59N 37°59' W 122°26'2 4.1
2017-Nov-19 11:30N 37°57' W 122°26'2 4.6
2017-Nov-19 11:00N 37°55' W 122°25'0 0.3
2017-Nov-19 10:30N 37°55' W 122°25'3 5.5
2017-Nov-19 10:00N 37°58' W 122°26'3 5.4
2017-Nov-19 09:30N 37°60' W 122°24'2 4.7
2017-Nov-19 09:00N 38°01' W 122°22'2 4.8
2017-Nov-19 08:30N 38°03' W 122°20'2 4.7
2017-Nov-19 08:00N 38°03' W 122°17'2 4.0
2017-Nov-19 07:30N 38°05' W 122°15'1 1.0
2017-Nov-19 07:00N 38°05' W 122°15'2 3.6
2017-Nov-19 06:30N 38°04' W 122°16'2 3.0
2017-Nov-19 06:00N 38°03' W 122°18'1 2.9
2017-Nov-19 05:30N 38°03' W 122°20'2 3.8
2017-Nov-19 05:00N 38°02' W 122°22'2 4.7
2017-Nov-19 04:30N 38°00' W 122°24'2 4.6
2017-Nov-19 04:00N 37°58' W 122°26'2 3.7
2017-Nov-19 03:30N 37°57' W 122°26'2 4.0
2017-Nov-19 03:00N 37°55' W 122°25'1 1.8
2017-Nov-19 02:30N 37°54' W 122°24'0 0.8
2017-Nov-19 02:00N 37°54' W 122°23'0 0.0
2017-Nov-19 01:30N 37°54' W 122°23'1 2.9
2017-Nov-19 01:00N 37°55' W 122°25'2 3.9
2017-Nov-19 00:30N 37°57' W 122°26'3 5.4
2017-Nov-19 00:00N 37°59' W 122°25'4 8.5
2017-Nov-18 23:30N 38°02' W 122°21'4 7.9
2017-Nov-18 23:00N 38°03' W 122°16'2 3.1
2017-Nov-18 22:16N 38°06' W 122°16'1 3.4
2017-Nov-18 22:00N 38°05' W 122°15'2 4.9
2017-Nov-18 21:30N 38°03' W 122°17'3 6.3
2017-Nov-18 20:59N 38°02' W 122°21'3 6.2
2017-Nov-18 20:30N 38°00' W 122°24'3 6.1
2017-Nov-18 20:00N 37°58' W 122°26'3 6.2
2017-Nov-18 19:30N 37°55' W 122°24'1 1.0
2017-Nov-18 19:00N 37°55' W 122°25'2 4.5
2017-Nov-18 18:30N 37°57' W 122°26'2 4.4
2017-Nov-18 18:00N 37°59' W 122°25'2 4.4
2017-Nov-18 17:30N 38°01' W 122°23'2 4.7
2017-Nov-18 17:00N 38°02' W 122°21'3 5.9
2017-Nov-18 16:30N 38°03' W 122°17'1 2.3
2017-Nov-18 16:00N 38°03' W 122°19'2 3.2
2017-Nov-18 15:30N 38°02' W 122°20'2 4.2
2017-Nov-18 15:00N 38°01' W 122°23'2 4.3
2017-Nov-18 14:30N 37°60' W 122°25'2 4.4
2017-Nov-18 14:00N 37°58' W 122°26'2 3.8
2017-Nov-18 13:30N 37°56' W 122°25'2 3.9
2017-Nov-18 13:00N 37°54' W 122°24'0 0.8
2017-Nov-18 12:30N 37°54' W 122°23'1 1.4
2017-Nov-18 12:00N 37°54' W 122°24'3 6.8
2017-Nov-18 11:30N 37°58' W 122°26'3 7.0
2017-Nov-18 11:00N 38°01' W 122°24'4 6.7
2017-Nov-18 10:29N 38°02' W 122°20'3 5.8
2017-Nov-18 10:00N 38°03' W 122°17'2 4.3
2017-Nov-18 09:30N 38°05' W 122°15'1 2.7
2017-Nov-18 09:00N 38°06' W 122°16'0 0.1
2017-Nov-18 07:37N 38°06' W 122°16'0 0.4
2017-Nov-18 07:30N 38°06' W 122°16'2 4.9
2017-Nov-18 07:00N 38°04' W 122°16'3 6.8
2017-Nov-18 06:30N 38°03' W 122°20'3 6.8
2017-Nov-18 06:00N 38°01' W 122°23'4 7.2
2017-Nov-18 05:30N 37°58' W 122°26'3 6.9
2017-Nov-18 05:00N 37°55' W 122°24'1 1.7
2017-Nov-18 04:30N 37°55' W 122°23'0 0.0
2017-Nov-18 04:00N 37°55' W 122°23'0 0.0
2017-Nov-18 03:30N 37°55' W 122°23'0 0.0
2017-Nov-18 03:00N 37°55' W 122°23'0 0.0
2017-Nov-18 02:30N 37°55' W 122°23'0 0.0
2017-Nov-18 02:00N 37°55' W 122°23'0 0.0
2017-Nov-18 01:30N 37°55' W 122°23'0 0.0
2017-Nov-18 01:00N 37°55' W 122°23'0 0.8
2017-Nov-18 00:30N 37°54' W 122°24'1 1.0
2017-Nov-18 00:00N 37°54' W 122°24'3 5.1
2017-Nov-17 23:30N 37°56' W 122°26'2 4.9
2017-Nov-17 23:00N 37°59' W 122°26'3 5.1
2017-Nov-17 22:29N 38°01' W 122°24'2 4.0
2017-Nov-17 22:00N 38°02' W 122°22'3 6.1
2017-Nov-17 21:30N 38°03' W 122°18'3 5.4
2017-Nov-17 20:56N 38°05' W 122°15'2 4.0
2017-Nov-17 20:27N 38°06' W 122°16'0 0.5
2017-Nov-17 19:52N 38°06' W 122°16'2 5.2
2017-Nov-17 19:29N 38°04' W 122°15'3 5.6
2017-Nov-17 19:00N 38°03' W 122°18'3 5.3
2017-Nov-17 18:29N 38°02' W 122°21'3 5.4
2017-Nov-17 18:00N 38°01' W 122°24'3 6.4
2017-Nov-17 17:30N 37°58' W 122°26'3 6.5
2017-Nov-17 17:00N 37°55' W 122°24'1 2.4
2017-Nov-17 16:30N 37°56' W 122°25'2 3.7
2017-Nov-17 16:00N 37°58' W 122°26'2 4.8
2017-Nov-17 15:30N 37°60' W 122°25'2 4.9
2017-Nov-17 15:00N 38°01' W 122°22'3 6.5
2017-Nov-17 14:30N 38°03' W 122°19'3 5.3
2017-Nov-17 13:57N 38°04' W 122°15'1 2.1
2017-Nov-17 13:30N 38°04' W 122°16'2 3.2
2017-Nov-17 13:00N 38°03' W 122°18'2 3.5
2017-Nov-17 12:30N 38°02' W 122°20'2 3.8
2017-Nov-17 12:00N 38°01' W 122°22'2 3.8
2017-Nov-17 11:30N 38°00' W 122°24'2 4.0
2017-Nov-17 11:00N 37°59' W 122°26'2 3.8
2017-Nov-17 10:30N 37°57' W 122°26'2 4.3
2017-Nov-17 10:00N 37°55' W 122°25'2 3.8
2017-Nov-17 09:30N 37°56' W 122°26'3 6.5
2017-Nov-17 09:00N 37°60' W 122°25'3 5.8
2017-Nov-17 08:30N 38°02' W 122°22'3 5.6
2017-Nov-17 08:00N 38°03' W 122°19'2 4.8
2017-Nov-17 07:30N 38°04' W 122°16'2 3.7
2017-Nov-17 07:00N 38°05' W 122°15'1 0.6
2017-Nov-17 05:12N 38°06' W 122°16'0 0.5
2017-Nov-17 04:56N 38°06' W 122°16'2 4.8
2017-Nov-17 04:30N 38°05' W 122°15'2 4.6
2017-Nov-17 03:58N 38°03' W 122°17'2 4.3
2017-Nov-17 03:31N 38°03' W 122°20'2 4.5
2017-Nov-17 03:00N 38°01' W 122°22'3 5.0
2017-Nov-17 02:30N 37°60' W 122°25'2 4.2
2017-Nov-17 02:00N 37°58' W 122°26'2 4.2
2017-Nov-17 01:30N 37°56' W 122°26'2 3.1
2017-Nov-17 01:01N 37°55' W 122°24'3 6.6
2017-Nov-17 00:30N 37°58' W 122°26'4 8.2
2017-Nov-17 00:00N 38°01' W 122°23'2 3.2
2017-Nov-16 23:30N 38°02' W 122°21'2 3.6
2017-Nov-16 22:58N 38°01' W 122°23'2 3.6
2017-Nov-16 22:30N 37°60' W 122°25'2 3.6
2017-Nov-16 21:58N 37°58' W 122°26'2 3.6
2017-Nov-16 21:30N 37°56' W 122°26'2 3.8
2017-Nov-16 21:00N 37°55' W 122°25'1 2.3
2017-Nov-16 20:31N 37°54' W 122°23'1 2.2
2017-Nov-16 20:00N 37°55' W 122°25'3 6.2
2017-Nov-16 19:30N 37°58' W 122°26'3 5.9
2017-Nov-16 19:00N 38°00' W 122°24'3 5.4
2017-Nov-16 18:26N 38°02' W 122°21'2 5.2
2017-Nov-16 18:00N 38°03' W 122°18'3 5.0
2017-Nov-16 17:30N 38°04' W 122°15'2 3.8
2017-Nov-16 16:57N 38°06' W 122°16'0 0.4
2017-Nov-16 16:26N 38°06' W 122°16'2 5.2
2017-Nov-16 16:00N 38°04' W 122°15'2 4.5
2017-Nov-16 15:30N 38°03' W 122°18'2 4.1
2017-Nov-16 14:59N 38°02' W 122°20'3 5.2
2017-Nov-16 14:30N 38°01' W 122°23'3 5.4
2017-Nov-16 13:58N 37°59' W 122°25'2 4.6
2017-Nov-16 13:29N 37°57' W 122°26'2 4.3
2017-Nov-16 13:00N 37°55' W 122°24'1 1.8
2017-Nov-16 12:30N 37°54' W 122°24'0 0.0
2017-Nov-16 12:00N 37°54' W 122°24'0 0.0
2017-Nov-16 11:30N 37°54' W 122°24'0 0.0
2017-Nov-16 11:00N 37°54' W 122°24'1 2.4
2017-Nov-16 10:31N 37°55' W 122°25'4 6.4
2017-Nov-16 09:54N 37°59' W 122°26'2 6.1
2017-Nov-16 09:30N 38°01' W 122°24'3 5.6
2017-Nov-16 08:58N 38°02' W 122°20'3 5.5
2017-Nov-16 08:30N 38°03' W 122°17'2 4.3
2017-Nov-16 08:00N 38°04' W 122°15'2 4.6
2017-Nov-16 07:29N 38°06' W 122°16'0 0.1
2017-Nov-16 05:29N 38°06' W 122°16'3 4.7
2017-Nov-16 04:56N 38°04' W 122°16'3 6.5
2017-Nov-16 04:30N 38°03' W 122°20'3 6.7
2017-Nov-16 04:00N 38°01' W 122°24'4 7.2
2017-Nov-16 03:30N 37°58' W 122°26'3 6.5
2017-Nov-16 03:00N 37°55' W 122°25'1 1.8
2017-Nov-16 02:30N 37°54' W 122°24'0 0.5
2017-Nov-16 02:00N 37°54' W 122°23'0 0.0
2017-Nov-16 01:30N 37°54' W 122°23'0 0.0
2017-Nov-16 01:00N 37°54' W 122°23'0 0.0
2017-Nov-16 00:30N 37°54' W 122°23'1 2.5
2017-Nov-16 00:00N 37°55' W 122°25'4 8.2
2017-Nov-15 23:29N 37°59' W 122°25'5 9.1
2017-Nov-15 22:58N 38°02' W 122°21'0 0.3
2017-Nov-15 22:27N 38°02' W 122°21'1 2.8
2017-Nov-15 22:00N 38°02' W 122°22'2 3.0
2017-Nov-15 21:30N 38°01' W 122°24'1 2.9
2017-Nov-15 21:00N 37°60' W 122°25'2 2.9
2017-Nov-15 20:22N 37°58' W 122°26'1 3.5
2017-Nov-15 20:00N 37°57' W 122°26'2 4.2
2017-Nov-15 19:30N 37°55' W 122°24'2 4.5
2017-Nov-15 19:00N 37°57' W 122°26'3 5.6
2017-Nov-15 18:30N 37°59' W 122°25'2 4.9
2017-Nov-15 18:00N 38°01' W 122°23'2 4.7
2017-Nov-15 17:30N 38°02' W 122°20'2 4.5
2017-Nov-15 17:00N 38°03' W 122°17'2 4.1
2017-Nov-15 16:30N 38°04' W 122°15'2 3.5
2017-Nov-15 15:54N 38°06' W 122°16'0 0.4
2017-Nov-15 15:04N 38°06' W 122°16'0 2.6
2017-Nov-15 14:57N 38°06' W 122°16'2 4.9
2017-Nov-15 14:30N 38°04' W 122°15'2 4.0
2017-Nov-15 14:00N 38°03' W 122°17'2 3.6
2017-Nov-15 13:30N 38°03' W 122°19'2 3.6
2017-Nov-15 12:59N 38°02' W 122°21'2 4.6
2017-Nov-15 12:29N 38°00' W 122°24'2 5.1
2017-Nov-15 12:00N 37°59' W 122°26'2 4.5
2017-Nov-15 11:30N 37°56' W 122°26'2 3.6
2017-Nov-15 11:01N 37°55' W 122°24'3 6.4
2017-Nov-15 10:30N 37°58' W 122°26'4 7.7
2017-Nov-15 10:00N 38°01' W 122°23'4 7.6
2017-Nov-15 09:31N 38°03' W 122°19'4 7.1
2017-Nov-15 09:00N 38°04' W 122°15'2 4.9
2017-Nov-15 08:30N 38°06' W 122°16'1 2.5
2017-Nov-15 08:00N 38°05' W 122°15'2 3.7
2017-Nov-15 07:30N 38°04' W 122°16'3 5.7
2017-Nov-15 07:00N 38°03' W 122°19'3 5.5
2017-Nov-15 06:30N 38°01' W 122°23'3 6.0
2017-Nov-15 06:00N 37°59' W 122°25'3 5.6
2017-Nov-15 05:30N 37°56' W 122°26'2 3.3
2017-Nov-15 05:01N 37°55' W 122°25'0 0.4
2017-Nov-15 04:30N 37°55' W 122°25'1 1.5
2017-Nov-15 04:00N 37°56' W 122°25'2 3.2
2017-Nov-15 03:30N 37°57' W 122°26'3 5.1
2017-Nov-15 03:00N 37°60' W 122°25'3 5.6
2017-Nov-15 02:30N 38°02' W 122°22'4 7.2
2017-Nov-15 02:00N 38°03' W 122°18'1 2.6
2017-Nov-15 01:30N 38°04' W 122°16'2 3.9
2017-Nov-15 01:00N 38°03' W 122°19'2 3.7
2017-Nov-15 00:30N 38°02' W 122°21'2 4.2
2017-Nov-15 00:00N 38°01' W 122°23'2 4.5
2017-Nov-14 23:30N 37°59' W 122°25'2 4.6
2017-Nov-14 23:00N 37°57' W 122°26'2 4.3
2017-Nov-14 22:30N 37°55' W 122°25'1 2.1
2017-Nov-14 22:00N 37°56' W 122°26'4 8.2
2017-Nov-14 21:30N 38°00' W 122°24'4 8.3
2017-Nov-14 21:00N 38°02' W 122°20'4 7.5
2017-Nov-14 20:30N 38°04' W 122°15'3 4.4
2017-Nov-14 19:55N 38°06' W 122°16'0 0.0
2017-Nov-14 19:23N 38°06' W 122°16'0 0.0
2017-Nov-14 19:01N 38°06' W 122°16'0 0.2
2017-Nov-14 18:30N 38°06' W 122°16'0 0.0
2017-Nov-14 18:00N 38°06' W 122°16'0 0.0
2017-Nov-14 17:30N 38°06' W 122°16'0 0.0
2017-Nov-14 16:57N 38°06' W 122°16'0 0.2
2017-Nov-14 16:29N 38°06' W 122°16'2 4.6
2017-Nov-14 16:00N 38°04' W 122°15'2 4.1
2017-Nov-14 15:30N 38°03' W 122°17'1 2.8
2017-Nov-14 15:00N 38°04' W 122°15'1 2.5
2017-Nov-14 14:30N 38°03' W 122°17'0 0.4
2017-Nov-14 14:00N 38°03' W 122°17'0 0.5
2017-Nov-14 13:30N 38°03' W 122°17'0 0.6
2017-Nov-14 13:00N 38°03' W 122°16'2 3.1
2017-Nov-14 12:30N 38°03' W 122°18'2 3.2
2017-Nov-14 12:00N 38°02' W 122°20'2 3.4
2017-Nov-14 11:30N 38°02' W 122°22'2 4.2
2017-Nov-14 11:00N 38°00' W 122°24'2 4.3
2017-Nov-14 10:30N 37°59' W 122°26'2 4.0
2017-Nov-14 10:00N 37°57' W 122°26'2 3.8
2017-Nov-14 09:30N 37°55' W 122°25'3 5.2
2017-Nov-14 09:00N 37°57' W 122°26'4 7.1
2017-Nov-14 08:30N 38°00' W 122°24'4 7.0
2017-Nov-14 08:00N 38°03' W 122°20'3 6.3
2017-Nov-14 07:30N 38°03' W 122°16'2 4.4
2017-Nov-14 07:00N 38°05' W 122°15'1 0.8
2017-Nov-14 05:34N 38°06' W 122°16'0 0.7
2017-Nov-14 05:17N 38°06' W 122°16'2 5.4
2017-Nov-14 05:00N 38°05' W 122°15'3 5.2
2017-Nov-14 04:30N 38°03' W 122°18'3 5.5
2017-Nov-14 04:00N 38°02' W 122°21'3 5.8
2017-Nov-14 03:30N 38°01' W 122°24'2 4.5
2017-Nov-14 03:00N 37°59' W 122°26'2 3.2
2017-Nov-14 02:30N 37°57' W 122°26'2 4.8
2017-Nov-14 02:00N 37°55' W 122°25'1 1.2
2017-Nov-14 01:30N 37°54' W 122°24'0 0.6
2017-Nov-14 01:00N 37°54' W 122°24'1 1.2
2017-Nov-14 00:31N 37°54' W 122°23'0 0.0
2017-Nov-14 00:00N 37°54' W 122°23'1 2.6
2017-Nov-13 23:30N 37°55' W 122°25'4 8.0
2017-Nov-13 23:00N 37°59' W 122°25'4 8.8
2017-Nov-13 22:30N 38°02' W 122°22'3 4.9
2017-Nov-13 21:58N 38°03' W 122°18'6 0.3
2017-Nov-13 02:00N 37°60' W 122°25'2 5.0
2017-Nov-13 01:30N 38°01' W 122°23'3 5.5
2017-Nov-13 01:00N 38°03' W 122°20'4 7.1
2017-Nov-13 00:30N 38°04' W 122°15'1 2.1
2017-Nov-13 00:00N 38°03' W 122°17'2 3.1
2017-Nov-12 23:30N 38°03' W 122°18'2 3.2
2017-Nov-12 23:00N 38°02' W 122°20'2 3.5
2017-Nov-12 22:30N 38°02' W 122°22'2 4.1
2017-Nov-12 22:00N 38°00' W 122°24'2 3.9
2017-Nov-12 21:29N 37°59' W 122°26'2 4.0
2017-Nov-12 20:57N 37°56' W 122°26'2 3.8
2017-Nov-12 20:30N 37°55' W 122°25'1 2.3
2017-Nov-12 20:00N 37°54' W 122°24'1 2.8
2017-Nov-12 19:30N 37°55' W 122°25'3 6.2
2017-Nov-12 19:00N 37°58' W 122°26'4 7.4
2017-Nov-12 18:30N 38°01' W 122°23'3 6.3
2017-Nov-12 18:00N 38°03' W 122°19'3 5.8
2017-Nov-12 17:30N 38°03' W 122°16'2 4.0
2017-Nov-12 17:00N 38°05' W 122°15'0 0.3
2017-Nov-12 16:30N 38°06' W 122°16'3 5.1
2017-Nov-12 16:00N 38°03' W 122°17'3 6.6
2017-Nov-12 15:29N 38°02' W 122°21'3 6.8
2017-Nov-12 15:00N 38°00' W 122°24'3 6.8
2017-Nov-12 14:30N 37°57' W 122°26'3 6.4
2017-Nov-12 14:00N 37°54' W 122°24'1 2.0
2017-Nov-12 13:30N 37°55' W 122°25'2 3.9
2017-Nov-12 12:58N 37°57' W 122°26'2 4.0
2017-Nov-12 12:30N 37°59' W 122°26'2 4.9
2017-Nov-12 12:00N 38°01' W 122°24'3 5.4
2017-Nov-12 11:26N 38°02' W 122°21'3 7.4
2017-Nov-12 10:59N 38°03' W 122°17'0 0.5
2017-Nov-12 10:26N 38°03' W 122°16'1 2.6
2017-Nov-12 09:58N 38°03' W 122°18'1 2.4
2017-Nov-12 09:29N 38°03' W 122°19'1 2.8
2017-Nov-12 08:59N 38°02' W 122°21'2 3.8
2017-Nov-12 08:27N 38°01' W 122°23'2 3.5
2017-Nov-12 07:59N 37°60' W 122°24'2 3.7
2017-Nov-12 07:29N 37°58' W 122°26'2 3.8
2017-Nov-12 07:00N 37°57' W 122°26'2 3.6
2017-Nov-12 06:31N 37°55' W 122°25'1 3.0
2017-Nov-12 06:01N 37°54' W 122°23'0 0.4
2017-Nov-12 05:30N 37°54' W 122°23'0 0.0
2017-Nov-12 05:00N 37°54' W 122°23'0 0.0
2017-Nov-12 04:31N 37°54' W 122°23'0 0.0
2017-Nov-12 04:00N 37°54' W 122°23'2 4.3
2017-Nov-12 03:30N 37°56' W 122°25'3 6.5
2017-Nov-12 02:58N 37°59' W 122°25'3 6.1
2017-Nov-12 02:30N 38°01' W 122°23'3 6.4
2017-Nov-12 02:00N 38°03' W 122°19'3 6.6
2017-Nov-12 01:30N 38°04' W 122°15'3 4.6
2017-Nov-12 00:57N 38°06' W 122°16'0 0.0
2017-Nov-11 23:00N 38°06' W 122°16'1 1.7
2017-Nov-11 22:30N 38°06' W 122°16'2 3.8
2017-Nov-11 22:00N 38°04' W 122°16'2 3.5
2017-Nov-11 21:30N 38°03' W 122°18'2 4.0
2017-Nov-11 20:59N 38°02' W 122°20'2 4.5
2017-Nov-11 20:29N 38°01' W 122°23'2 4.3
2017-Nov-11 20:00N 37°60' W 122°25'2 4.7
2017-Nov-11 19:30N 37°58' W 122°26'2 4.3
2017-Nov-11 19:00N 37°56' W 122°25'2 4.3
2017-Nov-11 18:30N 37°54' W 122°23'1 2.6
2017-Nov-11 18:00N 37°55' W 122°22'0 0.0
2017-Nov-11 17:30N 37°55' W 122°22'0 0.0
2017-Nov-11 17:00N 37°55' W 122°22'0 0.0
2017-Nov-11 16:30N 37°55' W 122°22'2 3.6
2017-Nov-11 16:00N 37°55' W 122°24'4 7.5
2017-Nov-11 15:29N 37°58' W 122°26'3 7.2
2017-Nov-11 15:00N 38°01' W 122°23'3 7.1
2017-Nov-11 14:30N 38°03' W 122°19'3 6.8
2017-Nov-11 14:00N 38°04' W 122°15'3 1.8
2017-Nov-11 12:36N 38°06' W 122°16'0 3.1
2017-Nov-11 12:30N 38°06' W 122°16'2 4.5
2017-Nov-11 12:00N 38°04' W 122°15'3 5.0
2017-Nov-11 11:30N 38°03' W 122°18'3 5.0
2017-Nov-11 10:58N 38°02' W 122°22'3 5.4
2017-Nov-11 10:30N 38°00' W 122°24'3 5.2
2017-Nov-11 09:58N 37°58' W 122°26'2 5.1
2017-Nov-11 09:30N 37°56' W 122°25'2 4.2
2017-Nov-11 09:00N 37°54' W 122°23'0 0.4
2017-Nov-11 08:30N 37°54' W 122°23'0 0.0
2017-Nov-11 08:00N 37°54' W 122°23'0 0.0
2017-Nov-11 07:30N 37°54' W 122°23'0 0.0
2017-Nov-11 07:00N 37°54' W 122°23'2 4.6
2017-Nov-11 06:30N 37°56' W 122°26'3 6.6
2017-Nov-11 05:59N 37°59' W 122°25'4 7.4
2017-Nov-11 05:30N 38°02' W 122°22'4 7.2
2017-Nov-11 05:00N 38°03' W 122°18'2 4.2
2017-Nov-11 04:29N 38°04' W 122°15'1 1.3
2017-Nov-11 03:58N 38°04' W 122°16'3 5.6
2017-Nov-11 03:30N 38°03' W 122°19'3 5.9
2017-Nov-11 03:00N 38°01' W 122°23'3 6.0
2017-Nov-11 02:30N 37°59' W 122°25'3 5.8
2017-Nov-11 01:59N 37°56' W 122°26'3 6.0
2017-Nov-11 01:30N 37°54' W 122°23'0 0.3
2017-Nov-11 01:00N 37°54' W 122°23'0 0.0
2017-Nov-11 00:30N 37°54' W 122°23'0 0.0
2017-Nov-10 23:59N 37°54' W 122°23'0 0.8
2017-Nov-10 23:30N 37°54' W 122°24'2 3.6
2017-Nov-10 23:00N 37°56' W 122°25'2 5.0
2017-Nov-10 22:30N 37°58' W 122°26'3 5.6
2017-Nov-10 22:00N 38°00' W 122°24'3 6.2
2017-Nov-10 21:30N 38°02' W 122°21'3 7.0
2017-Nov-10 21:00N 38°04' W 122°17'2 3.2
2017-Nov-10 20:30N 38°03' W 122°18'3 4.3
2017-Nov-10 19:50N 38°02' W 122°22'2 4.4
2017-Nov-10 19:28N 38°01' W 122°23'2 4.4
2017-Nov-10 19:00N 37°59' W 122°25'2 4.5
2017-Nov-10 18:30N 37°57' W 122°26'2 4.4
2017-Nov-10 18:00N 37°55' W 122°25'1 2.9
2017-Nov-10 17:31N 37°54' W 122°23'3 5.2
2017-Nov-10 17:00N 37°56' W 122°26'3 6.7
2017-Nov-10 16:29N 37°60' W 122°25'3 6.4
2017-Nov-10 16:00N 38°02' W 122°22'3 5.5
2017-Nov-10 15:30N 38°03' W 122°19'3 5.3
2017-Nov-10 15:00N 38°04' W 122°16'3 1.7
2017-Nov-10 13:21N 38°06' W 122°16'0 0.2
2017-Nov-10 11:51N 38°06' W 122°16'1 2.0
2017-Nov-10 11:30N 38°06' W 122°16'3 4.7
2017-Nov-10 10:57N 38°03' W 122°17'3 5.9
2017-Nov-10 10:24N 38°02' W 122°21'3 6.4
2017-Nov-10 09:57N 38°00' W 122°24'3 6.8
2017-Nov-10 09:30N 37°58' W 122°26'3 6.1
2017-Nov-10 09:00N 37°55' W 122°25'1 2.7
2017-Nov-10 08:30N 37°54' W 122°23'0 0.0
2017-Nov-10 08:00N 37°54' W 122°23'0 0.0
2017-Nov-10 07:30N 37°54' W 122°23'2 3.8
2017-Nov-10 07:00N 37°56' W 122°25'4 8.0
2017-Nov-10 06:29N 37°60' W 122°25'4 8.4
2017-Nov-10 05:58N 38°02' W 122°20'3 4.8
2017-Nov-10 05:22N 38°03' W 122°17'1 2.7
2017-Nov-10 05:00N 38°03' W 122°18'2 3.2
2017-Nov-10 04:28N 38°02' W 122°20'2 3.6
2017-Nov-10 04:00N 38°02' W 122°22'2 3.8
2017-Nov-10 03:30N 38°00' W 122°24'2 3.7
2017-Nov-10 03:00N 37°59' W 122°25'2 3.7
2017-Nov-10 02:30N 37°57' W 122°26'2 4.0
2017-Nov-10 02:00N 37°55' W 122°25'1 1.4
2017-Nov-10 01:30N 37°56' W 122°26'3 6.3
2017-Nov-10 01:00N 37°59' W 122°25'3 5.2
2017-Nov-10 00:30N 38°01' W 122°23'  
Track history (hours):
 
Tides and Currents Weather Stations Pressure Air Temp Water Temp Dewpoint Dewpoint Depression Visibility Wind Speed Wind Dir Waves Ship Positions

Sarah C.

Owner: Curtin Maritime Corporation, Long Beach, CA. More information available from US FCC via Universal Licensing System and Coast Guard Vessel Documentation Center.

Last reported at 2017-Nov-20 00:30 UTC. Time now 2017-Nov-21 13:27 UTC.
Position N 37°55' W 122°25'.

Length 20 m; draft 3 m.

Type: Towing. MMSI: 367308610.

Date/timePositionNaut miles runAvg speedWind from/ knotsBaromVisibWave heightAir tempDewpointWater temp
2017-Nov-20 00:30N 37°55' W 122°25'1 2.6
2017-Nov-20 00:00N 37°54' W 122°23'0 0.1
2017-Nov-19 23:30N 37°54' W 122°23'0 0.0
2017-Nov-19 23:00N 37°54' W 122°23'0 1.0
2017-Nov-19 22:30N 37°54' W 122°24'3 6.9
2017-Nov-19 22:00N 37°57' W 122°26'3 6.7
2017-Nov-19 21:30N 38°00' W 122°24'3 5.4
2017-Nov-19 21:00N 38°02' W 122°21'3 5.5
2017-Nov-19 20:30N 38°03' W 122°18'2 4.3
2017-Nov-19 20:00N 38°04' W 122°15'3 5.2
2017-Nov-19 19:30N 38°03' W 122°18'3 5.6
2017-Nov-19 19:00N 38°02' W 122°22'3 5.8
2017-Nov-19 18:30N 37°60' W 122°24'3 5.6
2017-Nov-19 18:00N 37°57' W 122°26'3 5.9
2017-Nov-19 17:30N 37°55' W 122°24'1 1.1
2017-Nov-19 17:00N 37°54' W 122°24'0 0.1
2017-Nov-19 16:30N 37°54' W 122°24'0 0.1
2017-Nov-19 16:00N 37°54' W 122°24'3 5.8
2017-Nov-19 15:29N 37°57' W 122°26'3 5.3
2017-Nov-19 15:00N 37°59' W 122°25'3 5.6
2017-Nov-19 14:30N 38°01' W 122°23'3 6.5
2017-Nov-19 14:00N 38°03' W 122°19'0 0.2
2017-Nov-19 13:30N 38°03' W 122°19'2 4.4
2017-Nov-19 13:00N 38°02' W 122°22'2 4.4
2017-Nov-19 12:30N 38°00' W 122°24'2 4.4
2017-Nov-19 11:59N 37°59' W 122°26'2 4.1
2017-Nov-19 11:30N 37°57' W 122°26'2 4.6
2017-Nov-19 11:00N 37°55' W 122°25'0 0.3
2017-Nov-19 10:30N 37°55' W 122°25'3 5.5
2017-Nov-19 10:00N 37°58' W 122°26'3 5.4
2017-Nov-19 09:30N 37°60' W 122°24'2 4.7
2017-Nov-19 09:00N 38°01' W 122°22'2 4.8
2017-Nov-19 08:30N 38°03' W 122°20'2 4.7
2017-Nov-19 08:00N 38°03' W 122°17'2 4.0
2017-Nov-19 07:30N 38°05' W 122°15'1 1.0
2017-Nov-19 07:00N 38°05' W 122°15'2 3.6
2017-Nov-19 06:30N 38°04' W 122°16'2 3.0
2017-Nov-19 06:00N 38°03' W 122°18'1 2.9
2017-Nov-19 05:30N 38°03' W 122°20'2 3.8
2017-Nov-19 05:00N 38°02' W 122°22'2 4.7
2017-Nov-19 04:30N 38°00' W 122°24'2 4.6
2017-Nov-19 04:00N 37°58' W 122°26'2 3.7
2017-Nov-19 03:30N 37°57' W 122°26'2 4.0
2017-Nov-19 03:00N 37°55' W 122°25'1 1.8
2017-Nov-19 02:30N 37°54' W 122°24'0 0.8
2017-Nov-19 02:00N 37°54' W 122°23'0 0.0
2017-Nov-19 01:30N 37°54' W 122°23'1 2.9
2017-Nov-19 01:00N 37°55' W 122°25'2 3.9
2017-Nov-19 00:30N 37°57' W 122°26'3 5.4
2017-Nov-19 00:00N 37°59' W 122°25'4 8.5
2017-Nov-18 23:30N 38°02' W 122°21'4 7.9
2017-Nov-18 23:00N 38°03' W 122°16'2 3.1
2017-Nov-18 22:16N 38°06' W 122°16'1 3.4
2017-Nov-18 22:00N 38°05' W 122°15'2 4.9
2017-Nov-18 21:30N 38°03' W 122°17'3 6.3
2017-Nov-18 20:59N 38°02' W 122°21'3 6.2
2017-Nov-18 20:30N 38°00' W 122°24'3 6.1
2017-Nov-18 20:00N 37°58' W 122°26'3 6.2
2017-Nov-18 19:30N 37°55' W 122°24'1 1.0
2017-Nov-18 19:00N 37°55' W 122°25'2 4.5
2017-Nov-18 18:30N 37°57' W 122°26'2 4.4
2017-Nov-18 18:00N 37°59' W 122°25'2 4.4
2017-Nov-18 17:30N 38°01' W 122°23'2 4.7
2017-Nov-18 17:00N 38°02' W 122°21'3 5.9
2017-Nov-18 16:30N 38°03' W 122°17'1 2.3
2017-Nov-18 16:00N 38°03' W 122°19'2 3.2
2017-Nov-18 15:30N 38°02' W 122°20'2 4.2
2017-Nov-18 15:00N 38°01' W 122°23'2 4.3
2017-Nov-18 14:30N 37°60' W 122°25'2 4.4
2017-Nov-18 14:00N 37°58' W 122°26'2 3.8
2017-Nov-18 13:30N 37°56' W 122°25'2 3.9
2017-Nov-18 13:00N 37°54' W 122°24'0 0.8
2017-Nov-18 12:30N 37°54' W 122°23'1 1.4
2017-Nov-18 12:00N 37°54' W 122°24'3 6.8
2017-Nov-18 11:30N 37°58' W 122°26'3 7.0
2017-Nov-18 11:00N 38°01' W 122°24'4 6.7
2017-Nov-18 10:29N 38°02' W 122°20'3 5.8
2017-Nov-18 10:00N 38°03' W 122°17'2 4.3
2017-Nov-18 09:30N 38°05' W 122°15'1 2.7
2017-Nov-18 09:00N 38°06' W 122°16'0 0.1
2017-Nov-18 07:37N 38°06' W 122°16'0 0.4
2017-Nov-18 07:30N 38°06' W 122°16'2 4.9
2017-Nov-18 07:00N 38°04' W 122°16'3 6.8
2017-Nov-18 06:30N 38°03' W 122°20'3 6.8
2017-Nov-18 06:00N 38°01' W 122°23'4 7.2
2017-Nov-18 05:30N 37°58' W 122°26'3 6.9
2017-Nov-18 05:00N 37°55' W 122°24'1 1.7
2017-Nov-18 04:30N 37°55' W 122°23'0 0.0
2017-Nov-18 04:00N 37°55' W 122°23'0 0.0
2017-Nov-18 03:30N 37°55' W 122°23'0 0.0
2017-Nov-18 03:00N 37°55' W 122°23'0 0.0
2017-Nov-18 02:30N 37°55' W 122°23'0 0.0
2017-Nov-18 02:00N 37°55' W 122°23'0 0.0
2017-Nov-18 01:30N 37°55' W 122°23'0 0.0
2017-Nov-18 01:00N 37°55' W 122°23'0 0.8
2017-Nov-18 00:30N 37°54' W 122°24'1 1.0
2017-Nov-18 00:00N 37°54' W 122°24'3 5.1
2017-Nov-17 23:30N 37°56' W 122°26'2 4.9
2017-Nov-17 23:00N 37°59' W 122°26'3 5.1
2017-Nov-17 22:29N 38°01' W 122°24'2 4.0
2017-Nov-17 22:00N 38°02' W 122°22'3 6.1
2017-Nov-17 21:30N 38°03' W 122°18'3 5.4
2017-Nov-17 20:56N 38°05' W 122°15'2 4.0
2017-Nov-17 20:27N 38°06' W 122°16'0 0.5
2017-Nov-17 19:52N 38°06' W 122°16'2 5.2
2017-Nov-17 19:29N 38°04' W 122°15'3 5.6
2017-Nov-17 19:00N 38°03' W 122°18'3 5.3
2017-Nov-17 18:29N 38°02' W 122°21'3 5.4
2017-Nov-17 18:00N 38°01' W 122°24'3 6.4
2017-Nov-17 17:30N 37°58' W 122°26'3 6.5
2017-Nov-17 17:00N 37°55' W 122°24'1 2.4
2017-Nov-17 16:30N 37°56' W 122°25'2 3.7
2017-Nov-17 16:00N 37°58' W 122°26'2 4.8
2017-Nov-17 15:30N 37°60' W 122°25'2 4.9
2017-Nov-17 15:00N 38°01' W 122°22'3 6.5
2017-Nov-17 14:30N 38°03' W 122°19'3 5.3
2017-Nov-17 13:57N 38°04' W 122°15'1 2.1
2017-Nov-17 13:30N 38°04' W 122°16'2 3.2
2017-Nov-17 13:00N 38°03' W 122°18'2 3.5
2017-Nov-17 12:30N 38°02' W 122°20'2 3.8
2017-Nov-17 12:00N 38°01' W 122°22'2 3.8
2017-Nov-17 11:30N 38°00' W 122°24'2 4.0
2017-Nov-17 11:00N 37°59' W 122°26'2 3.8
2017-Nov-17 10:30N 37°57' W 122°26'2 4.3
2017-Nov-17 10:00N 37°55' W 122°25'2 3.8
2017-Nov-17 09:30N 37°56' W 122°26'3 6.5
2017-Nov-17 09:00N 37°60' W 122°25'3 5.8
2017-Nov-17 08:30N 38°02' W 122°22'3 5.6
2017-Nov-17 08:00N 38°03' W 122°19'2 4.8
2017-Nov-17 07:30N 38°04' W 122°16'2 3.7
2017-Nov-17 07:00N 38°05' W 122°15'1 0.6
2017-Nov-17 05:12N 38°06' W 122°16'0 0.5
2017-Nov-17 04:56N 38°06' W 122°16'2 4.8
2017-Nov-17 04:30N 38°05' W 122°15'2 4.6
2017-Nov-17 03:58N 38°03' W 122°17'2 4.3
2017-Nov-17 03:31N 38°03' W 122°20'2 4.5
2017-Nov-17 03:00N 38°01' W 122°22'3 5.0
2017-Nov-17 02:30N 37°60' W 122°25'2 4.2
2017-Nov-17 02:00N 37°58' W 122°26'2 4.2
2017-Nov-17 01:30N 37°56' W 122°26'2 3.1
2017-Nov-17 01:01N 37°55' W 122°24'3 6.6
2017-Nov-17 00:30N 37°58' W 122°26'4 8.2
2017-Nov-17 00:00N 38°01' W 122°23'2 3.2
2017-Nov-16 23:30N 38°02' W 122°21'2 3.6
2017-Nov-16 22:58N 38°01' W 122°23'2 3.6
2017-Nov-16 22:30N 37°60' W 122°25'2 3.6
2017-Nov-16 21:58N 37°58' W 122°26'2 3.6
2017-Nov-16 21:30N 37°56' W 122°26'2 3.8
2017-Nov-16 21:00N 37°55' W 122°25'1 2.3
2017-Nov-16 20:31N 37°54' W 122°23'1 2.2
2017-Nov-16 20:00N 37°55' W 122°25'3 6.2
2017-Nov-16 19:30N 37°58' W 122°26'3 5.9
2017-Nov-16 19:00N 38°00' W 122°24'3 5.4
2017-Nov-16 18:26N 38°02' W 122°21'2 5.2
2017-Nov-16 18:00N 38°03' W 122°18'3 5.0
2017-Nov-16 17:30N 38°04' W 122°15'2 3.8
2017-Nov-16 16:57N 38°06' W 122°16'0 0.4
2017-Nov-16 16:26N 38°06' W 122°16'2 5.2
2017-Nov-16 16:00N 38°04' W 122°15'2 4.5
2017-Nov-16 15:30N 38°03' W 122°18'2 4.1
2017-Nov-16 14:59N 38°02' W 122°20'3 5.2
2017-Nov-16 14:30N 38°01' W 122°23'3 5.4
2017-Nov-16 13:58N 37°59' W 122°25'2 4.6
2017-Nov-16 13:29N 37°57' W 122°26'2 4.3
2017-Nov-16 13:00N 37°55' W 122°24'1 1.8
2017-Nov-16 12:30N 37°54' W 122°24'0 0.0
2017-Nov-16 12:00N 37°54' W 122°24'0 0.0
2017-Nov-16 11:30N 37°54' W 122°24'0 0.0
2017-Nov-16 11:00N 37°54' W 122°24'1 2.4
2017-Nov-16 10:31N 37°55' W 122°25'4 6.4
2017-Nov-16 09:54N 37°59' W 122°26'2 6.1
2017-Nov-16 09:30N 38°01' W 122°24'3 5.6
2017-Nov-16 08:58N 38°02' W 122°20'3 5.5
2017-Nov-16 08:30N 38°03' W 122°17'2 4.3
2017-Nov-16 08:00N 38°04' W 122°15'2 4.6
2017-Nov-16 07:29N 38°06' W 122°16'0 0.1
2017-Nov-16 05:29N 38°06' W 122°16'3 4.7
2017-Nov-16 04:56N 38°04' W 122°16'3 6.5
2017-Nov-16 04:30N 38°03' W 122°20'3 6.7
2017-Nov-16 04:00N 38°01' W 122°24'4 7.2
2017-Nov-16 03:30N 37°58' W 122°26'3 6.5
2017-Nov-16 03:00N 37°55' W 122°25'1 1.8
2017-Nov-16 02:30N 37°54' W 122°24'0 0.5
2017-Nov-16 02:00N 37°54' W 122°23'0 0.0
2017-Nov-16 01:30N 37°54' W 122°23'0 0.0
2017-Nov-16 01:00N 37°54' W 122°23'0 0.0
2017-Nov-16 00:30N 37°54' W 122°23'1 2.5
2017-Nov-16 00:00N 37°55' W 122°25'4 8.2
2017-Nov-15 23:29N 37°59' W 122°25'5 9.1
2017-Nov-15 22:58N 38°02' W 122°21'0 0.3
2017-Nov-15 22:27N 38°02' W 122°21'1 2.8
2017-Nov-15 22:00N 38°02' W 122°22'2 3.0
2017-Nov-15 21:30N 38°01' W 122°24'1 2.9
2017-Nov-15 21:00N 37°60' W 122°25'2 2.9
2017-Nov-15 20:22N 37°58' W 122°26'1 3.5
2017-Nov-15 20:00N 37°57' W 122°26'2 4.2
2017-Nov-15 19:30N 37°55' W 122°24'2 4.5
2017-Nov-15 19:00N 37°57' W 122°26'3 5.6
2017-Nov-15 18:30N 37°59' W 122°25'2 4.9
2017-Nov-15 18:00N 38°01' W 122°23'2 4.7
2017-Nov-15 17:30N 38°02' W 122°20'2 4.5
2017-Nov-15 17:00N 38°03' W 122°17'2 4.1
2017-Nov-15 16:30N 38°04' W 122°15'2 3.5
2017-Nov-15 15:54N 38°06' W 122°16'0 0.4
2017-Nov-15 15:04N 38°06' W 122°16'0 2.6
2017-Nov-15 14:57N 38°06' W 122°16'2 4.9
2017-Nov-15 14:30N 38°04' W 122°15'2 4.0
2017-Nov-15 14:00N 38°03' W 122°17'2 3.6
2017-Nov-15 13:30N 38°03' W 122°19'2 3.6
2017-Nov-15 12:59N 38°02' W 122°21'2 4.6
2017-Nov-15 12:29N 38°00' W 122°24'2 5.1
2017-Nov-15 12:00N 37°59' W 122°26'2 4.5
2017-Nov-15 11:30N 37°56' W 122°26'2 3.6
2017-Nov-15 11:01N 37°55' W 122°24'3 6.4
2017-Nov-15 10:30N 37°58' W 122°26'4 7.7
2017-Nov-15 10:00N 38°01' W 122°23'4 7.6
2017-Nov-15 09:31N 38°03' W 122°19'4 7.1
2017-Nov-15 09:00N 38°04' W 122°15'2 4.9
2017-Nov-15 08:30N 38°06' W 122°16'1 2.5
2017-Nov-15 08:00N 38°05' W 122°15'2 3.7
2017-Nov-15 07:30N 38°04' W 122°16'3 5.7
2017-Nov-15 07:00N 38°03' W 122°19'3 5.5
2017-Nov-15 06:30N 38°01' W 122°23'3 6.0
2017-Nov-15 06:00N 37°59' W 122°25'3 5.6
2017-Nov-15 05:30N 37°56' W 122°26'2 3.3
2017-Nov-15 05:01N 37°55' W 122°25'0 0.4
2017-Nov-15 04:30N 37°55' W 122°25'1 1.5
2017-Nov-15 04:00N 37°56' W 122°25'2 3.2
2017-Nov-15 03:30N 37°57' W 122°26'3 5.1
2017-Nov-15 03:00N 37°60' W 122°25'3 5.6
2017-Nov-15 02:30N 38°02' W 122°22'4 7.2
2017-Nov-15 02:00N 38°03' W 122°18'1 2.6
2017-Nov-15 01:30N 38°04' W 122°16'2 3.9
2017-Nov-15 01:00N 38°03' W 122°19'2 3.7
2017-Nov-15 00:30N 38°02' W 122°21'2 4.2
2017-Nov-15 00:00N 38°01' W 122°23'2 4.5
2017-Nov-14 23:30N 37°59' W 122°25'2 4.6
2017-Nov-14 23:00N 37°57' W 122°26'2 4.3
2017-Nov-14 22:30N 37°55' W 122°25'1 2.1
2017-Nov-14 22:00N 37°56' W 122°26'4 8.2
2017-Nov-14 21:30N 38°00' W 122°24'4 8.3
2017-Nov-14 21:00N 38°02' W 122°20'4 7.5
2017-Nov-14 20:30N 38°04' W 122°15'3 4.4
2017-Nov-14 19:55N 38°06' W 122°16'0 0.0
2017-Nov-14 19:23N 38°06' W 122°16'0 0.0
2017-Nov-14 19:01N 38°06' W 122°16'0 0.2
2017-Nov-14 18:30N 38°06' W 122°16'0 0.0
2017-Nov-14 18:00N 38°06' W 122°16'0 0.0
2017-Nov-14 17:30N 38°06' W 122°16'0 0.0
2017-Nov-14 16:57N 38°06' W 122°16'0 0.2
2017-Nov-14 16:29N 38°06' W 122°16'2 4.6
2017-Nov-14 16:00N 38°04' W 122°15'2 4.1
2017-Nov-14 15:30N 38°03' W 122°17'1 2.8
2017-Nov-14 15:00N 38°04' W 122°15'1 2.5
2017-Nov-14 14:30N 38°03' W 122°17'0 0.4
2017-Nov-14 14:00N 38°03' W 122°17'0 0.5
2017-Nov-14 13:30N 38°03' W 122°17'0 0.6
2017-Nov-14 13:00N 38°03' W 122°16'2 3.1
2017-Nov-14 12:30N 38°03' W 122°18'2 3.2
2017-Nov-14 12:00N 38°02' W 122°20'2 3.4
2017-Nov-14 11:30N 38°02' W 122°22'2 4.2
2017-Nov-14 11:00N 38°00' W 122°24'2 4.3
2017-Nov-14 10:30N 37°59' W 122°26'2 4.0
2017-Nov-14 10:00N 37°57' W 122°26'2 3.8
2017-Nov-14 09:30N 37°55' W 122°25'3 5.2
2017-Nov-14 09:00N 37°57' W 122°26'4 7.1
2017-Nov-14 08:30N 38°00' W 122°24'4 7.0
2017-Nov-14 08:00N 38°03' W 122°20'3 6.3
2017-Nov-14 07:30N 38°03' W 122°16'2 4.4
2017-Nov-14 07:00N 38°05' W 122°15'1 0.8
2017-Nov-14 05:34N 38°06' W 122°16'0 0.7
2017-Nov-14 05:17N 38°06' W 122°16'2 5.4
2017-Nov-14 05:00N 38°05' W 122°15'3 5.2
2017-Nov-14 04:30N 38°03' W 122°18'3 5.5
2017-Nov-14 04:00N 38°02' W 122°21'3 5.8
2017-Nov-14 03:30N 38°01' W 122°24'2 4.5
2017-Nov-14 03:00N 37°59' W 122°26'2 3.2
2017-Nov-14 02:30N 37°57' W 122°26'2 4.8
2017-Nov-14 02:00N 37°55' W 122°25'1 1.2
2017-Nov-14 01:30N 37°54' W 122°24'0 0.6
2017-Nov-14 01:00N 37°54' W 122°24'1 1.2
2017-Nov-14 00:31N 37°54' W 122°23'0 0.0
2017-Nov-14 00:00N 37°54' W 122°23'1 2.6
2017-Nov-13 23:30N 37°55' W 122°25'4 8.0
2017-Nov-13 23:00N 37°59' W 122°25'4 8.8
2017-Nov-13 22:30N 38°02' W 122°22'3 4.9
2017-Nov-13 21:58N 38°03' W 122°18'6 0.3
2017-Nov-13 02:00N 37°60' W 122°25'2 5.0
2017-Nov-13 01:30N 38°01' W 122°23'3 5.5
2017-Nov-13 01:00N 38°03' W 122°20'4 7.1
2017-Nov-13 00:30N 38°04' W 122°15'1 2.1
2017-Nov-13 00:00N 38°03' W 122°17'2 3.1
2017-Nov-12 23:30N 38°03' W 122°18'2 3.2
2017-Nov-12 23:00N 38°02' W 122°20'2 3.5
2017-Nov-12 22:30N 38°02' W 122°22'2 4.1
2017-Nov-12 22:00N 38°00' W 122°24'2 3.9
2017-Nov-12 21:29N 37°59' W 122°26'2 4.0
2017-Nov-12 20:57N 37°56' W 122°26'2 3.8
2017-Nov-12 20:30N 37°55' W 122°25'1 2.3
2017-Nov-12 20:00N 37°54' W 122°24'1 2.8
2017-Nov-12 19:30N 37°55' W 122°25'3 6.2
2017-Nov-12 19:00N 37°58' W 122°26'4 7.4
2017-Nov-12 18:30N 38°01' W 122°23'3 6.3
2017-Nov-12 18:00N 38°03' W 122°19'3 5.8
2017-Nov-12 17:30N 38°03' W 122°16'2 4.0
2017-Nov-12 17:00N 38°05' W 122°15'0 0.3
2017-Nov-12 16:30N 38°06' W 122°16'3 5.1
2017-Nov-12 16:00N 38°03' W 122°17'3 6.6
2017-Nov-12 15:29N 38°02' W 122°21'3 6.8
2017-Nov-12 15:00N 38°00' W 122°24'3 6.8
2017-Nov-12 14:30N 37°57' W 122°26'3 6.4
2017-Nov-12 14:00N 37°54' W 122°24'1 2.0
2017-Nov-12 13:30N 37°55' W 122°25'2 3.9
2017-Nov-12 12:58N 37°57' W 122°26'2 4.0
2017-Nov-12 12:30N 37°59' W 122°26'2 4.9
2017-Nov-12 12:00N 38°01' W 122°24'3 5.4
2017-Nov-12 11:26N 38°02' W 122°21'3 7.4
2017-Nov-12 10:59N 38°03' W 122°17'0 0.5
2017-Nov-12 10:26N 38°03' W 122°16'1 2.6
2017-Nov-12 09:58N 38°03' W 122°18'1 2.4
2017-Nov-12 09:29N 38°03' W 122°19'1 2.8
2017-Nov-12 08:59N 38°02' W 122°21'2 3.8
2017-Nov-12 08:27N 38°01' W 122°23'2 3.5
2017-Nov-12 07:59N 37°60' W 122°24'2 3.7
2017-Nov-12 07:29N 37°58' W 122°26'2 3.8
2017-Nov-12 07:00N 37°57' W 122°26'2 3.6
2017-Nov-12 06:31N 37°55' W 122°25'1 3.0
2017-Nov-12 06:01N 37°54' W 122°23'0 0.4
2017-Nov-12 05:30N 37°54' W 122°23'0 0.0
2017-Nov-12 05:00N 37°54' W 122°23'0 0.0
2017-Nov-12 04:31N 37°54' W 122°23'0 0.0
2017-Nov-12 04:00N 37°54' W 122°23'2 4.3
2017-Nov-12 03:30N 37°56' W 122°25'3 6.5
2017-Nov-12 02:58N 37°59' W 122°25'3 6.1
2017-Nov-12 02:30N 38°01' W 122°23'3 6.4
2017-Nov-12 02:00N 38°03' W 122°19'3 6.6
2017-Nov-12 01:30N 38°04' W 122°15'3 4.6
2017-Nov-12 00:57N 38°06' W 122°16'0 0.0
2017-Nov-11 23:00N 38°06' W 122°16'1 1.7
2017-Nov-11 22:30N 38°06' W 122°16'2 3.8
2017-Nov-11 22:00N 38°04' W 122°16'2 3.5
2017-Nov-11 21:30N 38°03' W 122°18'2 4.0
2017-Nov-11 20:59N 38°02' W 122°20'2 4.5
2017-Nov-11 20:29N 38°01' W 122°23'2 4.3
2017-Nov-11 20:00N 37°60' W 122°25'2 4.7
2017-Nov-11 19:30N 37°58' W 122°26'2 4.3
2017-Nov-11 19:00N 37°56' W 122°25'2 4.3
2017-Nov-11 18:30N 37°54' W 122°23'1 2.6
2017-Nov-11 18:00N 37°55' W 122°22'0 0.0
2017-Nov-11 17:30N 37°55' W 122°22'0 0.0
2017-Nov-11 17:00N 37°55' W 122°22'0 0.0
2017-Nov-11 16:30N 37°55' W 122°22'2 3.6
2017-Nov-11 16:00N 37°55' W 122°24'4 7.5
2017-Nov-11 15:29N 37°58' W 122°26'3 7.2
2017-Nov-11 15:00N 38°01' W 122°23'3 7.1
2017-Nov-11 14:30N 38°03' W 122°19'3 6.8
2017-Nov-11 14:00N 38°04' W 122°15'3 1.8
2017-Nov-11 12:36N 38°06' W 122°16'0 3.1
2017-Nov-11 12:30N 38°06' W 122°16'2 4.5
2017-Nov-11 12:00N 38°04' W 122°15'3 5.0
2017-Nov-11 11:30N 38°03' W 122°18'3 5.0
2017-Nov-11 10:58N 38°02' W 122°22'3 5.4
2017-Nov-11 10:30N 38°00' W 122°24'3 5.2
2017-Nov-11 09:58N 37°58' W 122°26'2 5.1
2017-Nov-11 09:30N 37°56' W 122°25'2 4.2
2017-Nov-11 09:00N 37°54' W 122°23'0 0.4
2017-Nov-11 08:30N 37°54' W 122°23'0 0.0
2017-Nov-11 08:00N 37°54' W 122°23'0 0.0
2017-Nov-11 07:30N 37°54' W 122°23'0 0.0
2017-Nov-11 07:00N 37°54' W 122°23'2 4.6
2017-Nov-11 06:30N 37°56' W 122°26'3 6.6
2017-Nov-11 05:59N 37°59' W 122°25'4 7.4
2017-Nov-11 05:30N 38°02' W 122°22'4 7.2
2017-Nov-11 05:00N 38°03' W 122°18'2 4.2
2017-Nov-11 04:29N 38°04' W 122°15'1 1.3
2017-Nov-11 03:58N 38°04' W 122°16'3 5.6
2017-Nov-11 03:30N 38°03' W 122°19'3 5.9
2017-Nov-11 03:00N 38°01' W 122°23'3 6.0
2017-Nov-11 02:30N 37°59' W 122°25'3 5.8
2017-Nov-11 01:59N 37°56' W 122°26'3 6.0
2017-Nov-11 01:30N 37°54' W 122°23'0 0.3
2017-Nov-11 01:00N 37°54' W 122°23'0 0.0
2017-Nov-11 00:30N 37°54' W 122°23'0 0.0
2017-Nov-10 23:59N 37°54' W 122°23'0 0.8
2017-Nov-10 23:30N 37°54' W 122°24'2 3.6
2017-Nov-10 23:00N 37°56' W 122°25'2 5.0
2017-Nov-10 22:30N 37°58' W 122°26'3 5.6
2017-Nov-10 22:00N 38°00' W 122°24'3 6.2
2017-Nov-10 21:30N 38°02' W 122°21'3 7.0
2017-Nov-10 21:00N 38°04' W 122°17'2 3.2
2017-Nov-10 20:30N 38°03' W 122°18'3 4.3
2017-Nov-10 19:50N 38°02' W 122°22'2 4.4
2017-Nov-10 19:28N 38°01' W 122°23'2 4.4
2017-Nov-10 19:00N 37°59' W 122°25'2 4.5
2017-Nov-10 18:30N 37°57' W 122°26'2 4.4
2017-Nov-10 18:00N 37°55' W 122°25'1 2.9
2017-Nov-10 17:31N 37°54' W 122°23'3 5.2
2017-Nov-10 17:00N 37°56' W 122°26'3 6.7
2017-Nov-10 16:29N 37°60' W 122°25'3 6.4
2017-Nov-10 16:00N 38°02' W 122°22'3 5.5
2017-Nov-10 15:30N 38°03' W 122°19'3 5.3
2017-Nov-10 15:00N 38°04' W 122°16'3 1.7
2017-Nov-10 13:21N 38°06' W 122°16'0 0.2
2017-Nov-10 11:51N 38°06' W 122°16'1 2.0
2017-Nov-10 11:30N 38°06' W 122°16'3 4.7
2017-Nov-10 10:57N 38°03' W 122°17'3 5.9
2017-Nov-10 10:24N 38°02' W 122°21'3 6.4
2017-Nov-10 09:57N 38°00' W 122°24'3 6.8
2017-Nov-10 09:30N 37°58' W 122°26'3 6.1
2017-Nov-10 09:00N 37°55' W 122°25'1 2.7
2017-Nov-10 08:30N 37°54' W 122°23'0 0.0
2017-Nov-10 08:00N 37°54' W 122°23'0 0.0
2017-Nov-10 07:30N 37°54' W 122°23'2 3.8
2017-Nov-10 07:00N 37°56' W 122°25'4 8.0
2017-Nov-10 06:29N 37°60' W 122°25'4 8.4
2017-Nov-10 05:58N 38°02' W 122°20'3 4.8
2017-Nov-10 05:22N 38°03' W 122°17'1 2.7
2017-Nov-10 05:00N 38°03' W 122°18'2 3.2
2017-Nov-10 04:28N 38°02' W 122°20'2 3.6
2017-Nov-10 04:00N 38°02' W 122°22'2 3.8
2017-Nov-10 03:30N 38°00' W 122°24'2 3.7
2017-Nov-10 03:00N 37°59' W 122°25'2 3.7
2017-Nov-10 02:30N 37°57' W 122°26'2 4.0
2017-Nov-10 02:00N 37°55' W 122°25'1 1.4
2017-Nov-10 01:30N 37°56' W 122°26'3 6.3
2017-Nov-10 01:00N 37°59' W 122°25'3 5.2
2017-Nov-10 00:30N 38°01' W 122°23'  

Dump ship's entire track history